sensor_id;sensor_type;location;lat;lon;timestamp;P1;durP1;ratioP1;P2;durP2;ratioP2
14181;SDS011;7171;50.936;6.764;2022-07-06T00:01:48;1.20;;;1.10;;
14181;SDS011;7171;50.936;6.764;2022-07-06T00:04:16;1.88;;;1.17;;
14181;SDS011;7171;50.936;6.764;2022-07-06T00:06:42;1.95;;;1.17;;
14181;SDS011;7171;50.936;6.764;2022-07-06T00:09:09;1.25;;;1.15;;
14181;SDS011;7171;50.936;6.764;2022-07-06T00:11:36;0.95;;;0.95;;
14181;SDS011;7171;50.936;6.764;2022-07-06T00:14:03;1.30;;;1.20;;
14181;SDS011;7171;50.936;6.764;2022-07-06T00:16:30;1.30;;;1.20;;
14181;SDS011;7171;50.936;6.764;2022-07-06T00:18:58;1.17;;;1.08;;
14181;SDS011;7171;50.936;6.764;2022-07-06T00:21:26;2.60;;;1.25;;
14181;SDS011;7171;50.936;6.764;2022-07-06T00:23:52;2.53;;;1.42;;
14181;SDS011;7171;50.936;6.764;2022-07-06T00:26:19;1.25;;;1.13;;
14181;SDS011;7171;50.936;6.764;2022-07-06T00:28:46;1.40;;;1.20;;
14181;SDS011;7171;50.936;6.764;2022-07-06T00:31:13;2.70;;;1.23;;
14181;SDS011;7171;50.936;6.764;2022-07-06T00:33:40;1.50;;;1.30;;
14181;SDS011;7171;50.936;6.764;2022-07-06T00:36:08;1.45;;;1.20;;
14181;SDS011;7171;50.936;6.764;2022-07-06T00:38:35;1.25;;;1.15;;
14181;SDS011;7171;50.936;6.764;2022-07-06T00:41:01;1.10;;;1.00;;
14181;SDS011;7171;50.936;6.764;2022-07-06T00:43:28;1.55;;;1.30;;
14181;SDS011;7171;50.936;6.764;2022-07-06T00:46:11;1.20;;;1.10;;
14181;SDS011;7171;50.936;6.764;2022-07-06T00:48:38;1.52;;;1.10;;
14181;SDS011;7171;50.936;6.764;2022-07-06T00:51:05;1.52;;;1.10;;
14181;SDS011;7171;50.936;6.764;2022-07-06T00:53:33;1.67;;;0.93;;
14181;SDS011;7171;50.936;6.764;2022-07-06T00:56:00;0.90;;;0.90;;
14181;SDS011;7171;50.936;6.764;2022-07-06T00:58:27;1.77;;;1.15;;
14181;SDS011;7171;50.936;6.764;2022-07-06T01:00:54;1.30;;;1.20;;
14181;SDS011;7171;50.936;6.764;2022-07-06T01:03:21;1.20;;;1.10;;
14181;SDS011;7171;50.936;6.764;2022-07-06T01:05:48;1.77;;;1.40;;
14181;SDS011;7171;50.936;6.764;2022-07-06T01:08:16;1.30;;;1.20;;
14181;SDS011;7171;50.936;6.764;2022-07-06T01:10:44;2.05;;;1.40;;
14181;SDS011;7171;50.936;6.764;2022-07-06T01:13:11;2.97;;;1.40;;
14181;SDS011;7171;50.936;6.764;2022-07-06T01:15:38;2.08;;;1.52;;
14181;SDS011;7171;50.936;6.764;2022-07-06T01:18:05;1.27;;;1.17;;
14181;SDS011;7171;50.936;6.764;2022-07-06T01:20:33;1.30;;;1.20;;
14181;SDS011;7171;50.936;6.764;2022-07-06T01:23:00;1.52;;;1.20;;
14181;SDS011;7171;50.936;6.764;2022-07-06T01:25:26;1.15;;;1.10;;
14181;SDS011;7171;50.936;6.764;2022-07-06T01:27:53;1.48;;;1.38;;
14181;SDS011;7171;50.936;6.764;2022-07-06T01:30:20;1.30;;;1.17;;
14181;SDS011;7171;50.936;6.764;2022-07-06T01:32:47;2.20;;;1.30;;
14181;SDS011;7171;50.936;6.764;2022-07-06T01:35:14;2.13;;;1.35;;
14181;SDS011;7171;50.936;6.764;2022-07-06T01:37:43;1.48;;;1.38;;
14181;SDS011;7171;50.936;6.764;2022-07-06T01:40:11;2.55;;;1.70;;
14181;SDS011;7171;50.936;6.764;2022-07-06T01:42:38;1.40;;;1.20;;
14181;SDS011;7171;50.936;6.764;2022-07-06T01:45:05;3.30;;;1.27;;
14181;SDS011;7171;50.936;6.764;2022-07-06T01:47:34;1.30;;;1.05;;
14181;SDS011;7171;50.936;6.764;2022-07-06T01:50:03;1.00;;;1.00;;
14181;SDS011;7171;50.936;6.764;2022-07-06T01:52:32;3.17;;;1.40;;
14181;SDS011;7171;50.936;6.764;2022-07-06T01:55:01;1.38;;;1.27;;
14181;SDS011;7171;50.936;6.764;2022-07-06T01:57:28;1.70;;;1.45;;
14181;SDS011;7171;50.936;6.764;2022-07-06T01:59:55;1.65;;;1.50;;
14181;SDS011;7171;50.936;6.764;2022-07-06T02:02:21;3.53;;;1.60;;
14181;SDS011;7171;50.936;6.764;2022-07-06T02:04:48;1.98;;;1.23;;
14181;SDS011;7171;50.936;6.764;2022-07-06T02:07:15;3.28;;;1.58;;
14181;SDS011;7171;50.936;6.764;2022-07-06T02:09:42;1.40;;;1.30;;
14181;SDS011;7171;50.936;6.764;2022-07-06T02:12:10;1.63;;;1.40;;
14181;SDS011;7171;50.936;6.764;2022-07-06T02:14:37;1.63;;;1.40;;
14181;SDS011;7171;50.936;6.764;2022-07-06T02:17:03;2.30;;;1.75;;
14181;SDS011;7171;50.936;6.764;2022-07-06T02:19:30;2.42;;;1.60;;
14181;SDS011;7171;50.936;6.764;2022-07-06T02:21:57;2.53;;;1.35;;
14181;SDS011;7171;50.936;6.764;2022-07-06T02:24:24;1.20;;;1.10;;
14181;SDS011;7171;50.936;6.764;2022-07-06T02:26:50;2.08;;;1.23;;
14181;SDS011;7171;50.936;6.764;2022-07-06T02:29:18;1.27;;;1.17;;
14181;SDS011;7171;50.936;6.764;2022-07-06T02:31:46;1.38;;;1.20;;
14181;SDS011;7171;50.936;6.764;2022-07-06T02:34:13;2.58;;;1.60;;
14181;SDS011;7171;50.936;6.764;2022-07-06T02:36:40;2.65;;;1.23;;
14181;SDS011;7171;50.936;6.764;2022-07-06T02:39:06;1.25;;;1.13;;
14181;SDS011;7171;50.936;6.764;2022-07-06T02:41:33;1.42;;;1.25;;
14181;SDS011;7171;50.936;6.764;2022-07-06T02:44:00;1.65;;;1.50;;
14181;SDS011;7171;50.936;6.764;2022-07-06T02:46:28;1.63;;;1.40;;
14181;SDS011;7171;50.936;6.764;2022-07-06T02:48:55;1.30;;;1.20;;
14181;SDS011;7171;50.936;6.764;2022-07-06T02:51:22;1.63;;;1.30;;
14181;SDS011;7171;50.936;6.764;2022-07-06T02:53:49;1.92;;;1.33;;
14181;SDS011;7171;50.936;6.764;2022-07-06T02:56:16;1.20;;;1.10;;
14181;SDS011;7171;50.936;6.764;2022-07-06T02:58:42;1.35;;;1.10;;
14181;SDS011;7171;50.936;6.764;2022-07-06T03:01:09;1.50;;;1.40;;
14181;SDS011;7171;50.936;6.764;2022-07-06T03:03:37;1.08;;;0.98;;
14181;SDS011;7171;50.936;6.764;2022-07-06T03:06:04;1.85;;;1.27;;
14181;SDS011;7171;50.936;6.764;2022-07-06T03:08:31;1.67;;;1.30;;
14181;SDS011;7171;50.936;6.764;2022-07-06T03:10:59;1.30;;;1.20;;
14181;SDS011;7171;50.936;6.764;2022-07-06T03:13:26;1.27;;;1.17;;
14181;SDS011;7171;50.936;6.764;2022-07-06T03:15:53;1.20;;;1.10;;
14181;SDS011;7171;50.936;6.764;2022-07-06T03:18:20;1.40;;;1.30;;
14181;SDS011;7171;50.936;6.764;2022-07-06T03:20:48;2.40;;;1.40;;
14181;SDS011;7171;50.936;6.764;2022-07-06T03:23:16;1.20;;;1.10;;
14181;SDS011;7171;50.936;6.764;2022-07-06T03:25:43;1.42;;;1.33;;
14181;SDS011;7171;50.936;6.764;2022-07-06T03:28:12;1.30;;;1.10;;
14181;SDS011;7171;50.936;6.764;2022-07-06T03:30:41;1.10;;;1.00;;
14181;SDS011;7171;50.936;6.764;2022-07-06T03:33:08;1.55;;;1.45;;
14181;SDS011;7171;50.936;6.764;2022-07-06T03:35:36;1.40;;;1.30;;
14181;SDS011;7171;50.936;6.764;2022-07-06T03:38:04;1.10;;;1.10;;
14181;SDS011;7171;50.936;6.764;2022-07-06T03:40:31;1.50;;;1.38;;
14181;SDS011;7171;50.936;6.764;2022-07-06T03:42:58;1.20;;;1.10;;
14181;SDS011;7171;50.936;6.764;2022-07-06T03:45:25;1.47;;;1.37;;
14181;SDS011;7171;50.936;6.764;2022-07-06T03:47:52;1.27;;;1.17;;
14181;SDS011;7171;50.936;6.764;2022-07-06T03:50:19;1.40;;;1.30;;
14181;SDS011;7171;50.936;6.764;2022-07-06T03:52:46;1.90;;;1.50;;
14181;SDS011;7171;50.936;6.764;2022-07-06T03:55:14;1.30;;;1.20;;
14181;SDS011;7171;50.936;6.764;2022-07-06T03:57:41;1.40;;;1.30;;
14181;SDS011;7171;50.936;6.764;2022-07-06T04:00:08;1.88;;;1.60;;
14181;SDS011;7171;50.936;6.764;2022-07-06T04:02:36;1.67;;;1.47;;
14181;SDS011;7171;50.936;6.764;2022-07-06T04:05:03;1.20;;;1.10;;
14181;SDS011;7171;50.936;6.764;2022-07-06T04:07:30;2.38;;;1.60;;
14181;SDS011;7171;50.936;6.764;2022-07-06T04:09:57;1.40;;;1.30;;
14181;SDS011;7171;50.936;6.764;2022-07-06T04:12:25;1.37;;;1.27;;
14181;SDS011;7171;50.936;6.764;2022-07-06T04:14:52;1.60;;;1.33;;
14181;SDS011;7171;50.936;6.764;2022-07-06T04:17:21;1.40;;;1.30;;
14181;SDS011;7171;50.936;6.764;2022-07-06T04:20:06;1.60;;;1.50;;
14181;SDS011;7171;50.936;6.764;2022-07-06T04:22:36;1.67;;;1.30;;
14181;SDS011;7171;50.936;6.764;2022-07-06T04:25:04;1.40;;;1.30;;
14181;SDS011;7171;50.936;6.764;2022-07-06T04:27:32;1.80;;;1.45;;
14181;SDS011;7171;50.936;6.764;2022-07-06T04:29:59;1.30;;;1.20;;
14181;SDS011;7171;50.936;6.764;2022-07-06T04:32:26;1.20;;;1.10;;
14181;SDS011;7171;50.936;6.764;2022-07-06T04:34:53;1.43;;;1.33;;
14181;SDS011;7171;50.936;6.764;2022-07-06T04:37:20;1.60;;;1.50;;
14181;SDS011;7171;50.936;6.764;2022-07-06T04:39:46;1.63;;;1.42;;
14181;SDS011;7171;50.936;6.764;2022-07-06T04:42:13;1.65;;;1.55;;
14181;SDS011;7171;50.936;6.764;2022-07-06T04:44:41;1.50;;;1.40;;
14181;SDS011;7171;50.936;6.764;2022-07-06T04:47:08;1.35;;;1.25;;
14181;SDS011;7171;50.936;6.764;2022-07-06T04:49:35;1.40;;;1.30;;
14181;SDS011;7171;50.936;6.764;2022-07-06T04:52:02;2.03;;;1.45;;
14181;SDS011;7171;50.936;6.764;2022-07-06T04:54:29;5.55;;;1.67;;
14181;SDS011;7171;50.936;6.764;2022-07-06T04:56:56;1.25;;;1.15;;
14181;SDS011;7171;50.936;6.764;2022-07-06T04:59:23;1.95;;;1.50;;
14181;SDS011;7171;50.936;6.764;2022-07-06T05:01:51;2.78;;;1.63;;
14181;SDS011;7171;50.936;6.764;2022-07-06T05:04:18;2.17;;;1.73;;
14181;SDS011;7171;50.936;6.764;2022-07-06T05:06:45;4.30;;;1.92;;
14181;SDS011;7171;50.936;6.764;2022-07-06T05:09:12;1.98;;;1.88;;
14181;SDS011;7171;50.936;6.764;2022-07-06T05:11:39;2.38;;;1.40;;
14181;SDS011;7171;50.936;6.764;2022-07-06T05:14:05;2.13;;;1.92;;
14181;SDS011;7171;50.936;6.764;2022-07-06T05:16:33;3.35;;;1.88;;
14181;SDS011;7171;50.936;6.764;2022-07-06T05:19:01;2.28;;;2.08;;
14181;SDS011;7171;50.936;6.764;2022-07-06T05:21:28;2.97;;;2.05;;
14181;SDS011;7171;50.936;6.764;2022-07-06T05:23:55;2.05;;;1.67;;
14181;SDS011;7171;50.936;6.764;2022-07-06T05:26:22;2.10;;;1.90;;
14181;SDS011;7171;50.936;6.764;2022-07-06T05:28:48;1.27;;;1.17;;
14181;SDS011;7171;50.936;6.764;2022-07-06T05:31:15;2.47;;;1.60;;
14181;SDS011;7171;50.936;6.764;2022-07-06T05:33:42;1.90;;;1.63;;
14181;SDS011;7171;50.936;6.764;2022-07-06T05:36:10;2.97;;;1.70;;
14181;SDS011;7171;50.936;6.764;2022-07-06T05:38:37;2.40;;;1.88;;
14181;SDS011;7171;50.936;6.764;2022-07-06T05:41:03;2.08;;;1.85;;
14181;SDS011;7171;50.936;6.764;2022-07-06T05:43:30;1.90;;;1.80;;
14181;SDS011;7171;50.936;6.764;2022-07-06T05:45:57;1.70;;;1.50;;
14181;SDS011;7171;50.936;6.764;2022-07-06T05:48:24;2.13;;;1.92;;
14181;SDS011;7171;50.936;6.764;2022-07-06T05:51:09;3.17;;;1.85;;
14181;SDS011;7171;50.936;6.764;2022-07-06T05:53:36;1.40;;;1.30;;
14181;SDS011;7171;50.936;6.764;2022-07-06T05:56:03;1.58;;;1.48;;
14181;SDS011;7171;50.936;6.764;2022-07-06T05:58:30;1.40;;;1.30;;
14181;SDS011;7171;50.936;6.764;2022-07-06T06:00:57;3.17;;;1.70;;
14181;SDS011;7171;50.936;6.764;2022-07-06T06:03:24;1.40;;;1.30;;
14181;SDS011;7171;50.936;6.764;2022-07-06T06:05:50;1.48;;;1.30;;
14181;SDS011;7171;50.936;6.764;2022-07-06T06:08:18;1.98;;;1.38;;
14181;SDS011;7171;50.936;6.764;2022-07-06T06:10:45;3.63;;;1.73;;
14181;SDS011;7171;50.936;6.764;2022-07-06T06:13:12;1.52;;;1.42;;
14181;SDS011;7171;50.936;6.764;2022-07-06T06:15:39;1.33;;;1.23;;
14181;SDS011;7171;50.936;6.764;2022-07-06T06:18:06;1.42;;;1.33;;
14181;SDS011;7171;50.936;6.764;2022-07-06T06:20:32;1.48;;;1.38;;
14181;SDS011;7171;50.936;6.764;2022-07-06T06:22:59;2.75;;;1.98;;
14181;SDS011;7171;50.936;6.764;2022-07-06T06:25:30;1.67;;;1.58;;
14181;SDS011;7171;50.936;6.764;2022-07-06T06:27:58;2.25;;;1.60;;
14181;SDS011;7171;50.936;6.764;2022-07-06T06:30:26;1.83;;;1.63;;
14181;SDS011;7171;50.936;6.764;2022-07-06T06:33:04;2.03;;;1.50;;
14181;SDS011;7171;50.936;6.764;2022-07-06T06:35:31;1.70;;;1.60;;
14181;SDS011;7171;50.936;6.764;2022-07-06T06:37:58;2.60;;;1.98;;
14181;SDS011;7171;50.936;6.764;2022-07-06T06:40:24;1.50;;;1.40;;
14181;SDS011;7171;50.936;6.764;2022-07-06T06:42:53;2.88;;;1.55;;
14181;SDS011;7171;50.936;6.764;2022-07-06T06:45:19;1.27;;;1.15;;
14181;SDS011;7171;50.936;6.764;2022-07-06T06:47:46;1.92;;;1.67;;
14181;SDS011;7171;50.936;6.764;2022-07-06T06:50:13;1.60;;;1.48;;
14181;SDS011;7171;50.936;6.764;2022-07-06T06:52:40;1.77;;;1.50;;
14181;SDS011;7171;50.936;6.764;2022-07-06T06:55:07;1.15;;;1.05;;
14181;SDS011;7171;50.936;6.764;2022-07-06T06:57:34;2.03;;;1.33;;
14181;SDS011;7171;50.936;6.764;2022-07-06T07:00:03;1.50;;;1.40;;
14181;SDS011;7171;50.936;6.764;2022-07-06T07:02:30;1.77;;;1.60;;
14181;SDS011;7171;50.936;6.764;2022-07-06T07:04:57;1.50;;;1.40;;
14181;SDS011;7171;50.936;6.764;2022-07-06T07:07:24;3.72;;;1.70;;
14181;SDS011;7171;50.936;6.764;2022-07-06T07:09:51;1.52;;;1.38;;
14181;SDS011;7171;50.936;6.764;2022-07-06T07:12:18;1.73;;;1.40;;
14181;SDS011;7171;50.936;6.764;2022-07-06T07:14:44;2.25;;;1.63;;
14181;SDS011;7171;50.936;6.764;2022-07-06T07:17:13;3.58;;;1.60;;
14181;SDS011;7171;50.936;6.764;2022-07-06T07:19:40;1.50;;;1.30;;
14181;SDS011;7171;50.936;6.764;2022-07-06T07:22:07;1.40;;;1.30;;
14181;SDS011;7171;50.936;6.764;2022-07-06T07:24:34;1.30;;;1.20;;
14181;SDS011;7171;50.936;6.764;2022-07-06T07:27:01;4.05;;;1.60;;
14181;SDS011;7171;50.936;6.764;2022-07-06T07:29:28;1.15;;;1.08;;
14181;SDS011;7171;50.936;6.764;2022-07-06T07:31:55;1.08;;;0.98;;
14181;SDS011;7171;50.936;6.764;2022-07-06T07:34:23;1.38;;;1.20;;
14181;SDS011;7171;50.936;6.764;2022-07-06T07:36:49;1.15;;;1.05;;
14181;SDS011;7171;50.936;6.764;2022-07-06T07:39:17;1.02;;;1.02;;
14181;SDS011;7171;50.936;6.764;2022-07-06T07:41:43;1.42;;;1.10;;
14181;SDS011;7171;50.936;6.764;2022-07-06T07:44:10;1.42;;;1.20;;
14181;SDS011;7171;50.936;6.764;2022-07-06T07:46:37;1.50;;;0.98;;
14181;SDS011;7171;50.936;6.764;2022-07-06T07:49:04;1.00;;;0.90;;
14181;SDS011;7171;50.936;6.764;2022-07-06T07:51:34;0.90;;;0.80;;
14181;SDS011;7171;50.936;6.764;2022-07-06T07:54:00;1.17;;;0.93;;
14181;SDS011;7171;50.936;6.764;2022-07-06T07:56:27;1.85;;;0.93;;
14181;SDS011;7171;50.936;6.764;2022-07-06T07:58:54;1.63;;;1.08;;
14181;SDS011;7171;50.936;6.764;2022-07-06T08:01:21;0.98;;;0.90;;
14181;SDS011;7171;50.936;6.764;2022-07-06T08:03:47;0.82;;;0.82;;
14181;SDS011;7171;50.936;6.764;2022-07-06T08:06:14;1.17;;;0.70;;
14181;SDS011;7171;50.936;6.764;2022-07-06T08:08:42;0.80;;;0.80;;
14181;SDS011;7171;50.936;6.764;2022-07-06T08:11:09;1.70;;;0.88;;
14181;SDS011;7171;50.936;6.764;2022-07-06T08:13:36;0.80;;;0.80;;
14181;SDS011;7171;50.936;6.764;2022-07-06T08:16:03;0.82;;;0.73;;
14181;SDS011;7171;50.936;6.764;2022-07-06T08:18:30;0.70;;;0.70;;
14181;SDS011;7171;50.936;6.764;2022-07-06T08:20:57;4.25;;;1.08;;
14181;SDS011;7171;50.936;6.764;2022-07-06T08:23:24;0.60;;;0.60;;
14181;SDS011;7171;50.936;6.764;2022-07-06T08:25:52;0.90;;;0.85;;
14181;SDS011;7171;50.936;6.764;2022-07-06T08:28:18;0.70;;;0.70;;
14181;SDS011;7171;50.936;6.764;2022-07-06T08:30:45;0.80;;;0.80;;
14181;SDS011;7171;50.936;6.764;2022-07-06T08:33:13;1.30;;;0.80;;
14181;SDS011;7171;50.936;6.764;2022-07-06T08:35:40;0.60;;;0.60;;
14181;SDS011;7171;50.936;6.764;2022-07-06T08:38:07;1.75;;;0.88;;
14181;SDS011;7171;50.936;6.764;2022-07-06T08:40:34;1.42;;;0.80;;
14181;SDS011;7171;50.936;6.764;2022-07-06T08:43:03;0.80;;;0.77;;
14181;SDS011;7171;50.936;6.764;2022-07-06T08:45:29;0.68;;;0.65;;
14181;SDS011;7171;50.936;6.764;2022-07-06T08:48:01;0.80;;;0.80;;
14181;SDS011;7171;50.936;6.764;2022-07-06T08:50:30;1.10;;;0.90;;
14181;SDS011;7171;50.936;6.764;2022-07-06T08:52:58;0.70;;;0.70;;
14181;SDS011;7171;50.936;6.764;2022-07-06T08:55:25;1.63;;;0.70;;
14181;SDS011;7171;50.936;6.764;2022-07-06T08:57:53;0.70;;;0.70;;
14181;SDS011;7171;50.936;6.764;2022-07-06T09:00:22;1.60;;;0.77;;
14181;SDS011;7171;50.936;6.764;2022-07-06T09:02:50;0.63;;;0.63;;
14181;SDS011;7171;50.936;6.764;2022-07-06T09:05:21;1.27;;;0.90;;
14181;SDS011;7171;50.936;6.764;2022-07-06T09:07:49;0.90;;;0.80;;
14181;SDS011;7171;50.936;6.764;2022-07-06T09:10:17;0.85;;;0.70;;
14181;SDS011;7171;50.936;6.764;2022-07-06T09:12:45;1.17;;;0.88;;
14181;SDS011;7171;50.936;6.764;2022-07-06T09:15:12;1.95;;;0.77;;
14181;SDS011;7171;50.936;6.764;2022-07-06T09:17:41;1.27;;;0.75;;
14181;SDS011;7171;50.936;6.764;2022-07-06T09:20:09;0.52;;;0.52;;
14181;SDS011;7171;50.936;6.764;2022-07-06T09:22:37;0.40;;;0.40;;
14181;SDS011;7171;50.936;6.764;2022-07-06T09:25:05;1.70;;;0.80;;
14181;SDS011;7171;50.936;6.764;2022-07-06T09:27:36;0.70;;;0.70;;
14181;SDS011;7171;50.936;6.764;2022-07-06T09:30:05;0.80;;;0.80;;
14181;SDS011;7171;50.936;6.764;2022-07-06T09:32:37;0.60;;;0.60;;
14181;SDS011;7171;50.936;6.764;2022-07-06T09:35:06;2.67;;;0.90;;
14181;SDS011;7171;50.936;6.764;2022-07-06T09:37:33;0.80;;;0.80;;
14181;SDS011;7171;50.936;6.764;2022-07-06T09:40:00;0.85;;;0.77;;
14181;SDS011;7171;50.936;6.764;2022-07-06T09:42:41;1.48;;;0.73;;
14181;SDS011;7171;50.936;6.764;2022-07-06T09:45:08;0.68;;;0.68;;
14181;SDS011;7171;50.936;6.764;2022-07-06T09:47:35;1.65;;;0.90;;
14181;SDS011;7171;50.936;6.764;2022-07-06T09:50:04;0.73;;;0.70;;
14181;SDS011;7171;50.936;6.764;2022-07-06T09:52:33;0.70;;;0.70;;
14181;SDS011;7171;50.936;6.764;2022-07-06T09:55:00;0.60;;;0.60;;
14181;SDS011;7171;50.936;6.764;2022-07-06T09:57:32;3.17;;;0.80;;
14181;SDS011;7171;50.936;6.764;2022-07-06T09:59:59;0.82;;;0.82;;
14181;SDS011;7171;50.936;6.764;2022-07-06T10:02:26;0.68;;;0.68;;
14181;SDS011;7171;50.936;6.764;2022-07-06T10:04:54;1.40;;;0.90;;
14181;SDS011;7171;50.936;6.764;2022-07-06T10:07:23;0.70;;;0.70;;
14181;SDS011;7171;50.936;6.764;2022-07-06T10:09:50;1.45;;;0.80;;
14181;SDS011;7171;50.936;6.764;2022-07-06T10:12:18;0.60;;;0.60;;
14181;SDS011;7171;50.936;6.764;2022-07-06T10:14:46;0.73;;;0.70;;
14181;SDS011;7171;50.936;6.764;2022-07-06T10:17:13;0.82;;;0.82;;
14181;SDS011;7171;50.936;6.764;2022-07-06T10:19:41;0.60;;;0.60;;
14181;SDS011;7171;50.936;6.764;2022-07-06T10:22:09;0.73;;;0.70;;
14181;SDS011;7171;50.936;6.764;2022-07-06T10:24:38;3.88;;;0.70;;
14181;SDS011;7171;50.936;6.764;2022-07-06T10:27:08;0.70;;;0.70;;
14181;SDS011;7171;50.936;6.764;2022-07-06T10:29:36;0.68;;;0.68;;
14181;SDS011;7171;50.936;6.764;2022-07-06T10:32:04;1.00;;;0.90;;
14181;SDS011;7171;50.936;6.764;2022-07-06T10:34:32;0.80;;;0.80;;
14181;SDS011;7171;50.936;6.764;2022-07-06T10:37:01;0.80;;;0.80;;
14181;SDS011;7171;50.936;6.764;2022-07-06T10:39:31;0.90;;;0.60;;
14181;SDS011;7171;50.936;6.764;2022-07-06T10:45:11;0.75;;;0.70;;
14181;SDS011;7171;50.936;6.764;2022-07-06T10:47:39;1.15;;;0.80;;
14181;SDS011;7171;50.936;6.764;2022-07-06T10:50:06;2.00;;;1.10;;
14181;SDS011;7171;50.936;6.764;2022-07-06T10:55:30;0.70;;;0.70;;
14181;SDS011;7171;50.936;6.764;2022-07-06T10:57:59;0.57;;;0.57;;
14181;SDS011;7171;50.936;6.764;2022-07-06T11:00:26;0.70;;;0.63;;
14181;SDS011;7171;50.936;6.764;2022-07-06T11:05:59;0.52;;;0.52;;
14181;SDS011;7171;50.936;6.764;2022-07-06T11:08:40;2.35;;;0.90;;
14181;SDS011;7171;50.936;6.764;2022-07-06T11:11:12;0.80;;;0.65;;
14181;SDS011;7171;50.936;6.764;2022-07-06T11:13:50;1.48;;;0.70;;
14181;SDS011;7171;50.936;6.764;2022-07-06T11:16:19;1.42;;;0.90;;
14181;SDS011;7171;50.936;6.764;2022-07-06T11:18:48;0.80;;;0.80;;
14181;SDS011;7171;50.936;6.764;2022-07-06T11:21:31;1.20;;;0.70;;
14181;SDS011;7171;50.936;6.764;2022-07-06T11:23:59;0.80;;;0.80;;
14181;SDS011;7171;50.936;6.764;2022-07-06T11:26:27;1.48;;;1.15;;
14181;SDS011;7171;50.936;6.764;2022-07-06T11:28:55;0.98;;;0.90;;
14181;SDS011;7171;50.936;6.764;2022-07-06T11:31:25;0.98;;;0.80;;
14181;SDS011;7171;50.936;6.764;2022-07-06T11:33:51;1.10;;;0.70;;
14181;SDS011;7171;50.936;6.764;2022-07-06T11:36:19;0.80;;;0.70;;
14181;SDS011;7171;50.936;6.764;2022-07-06T11:38:48;1.30;;;0.70;;
14181;SDS011;7171;50.936;6.764;2022-07-06T11:41:16;1.58;;;0.70;;
14181;SDS011;7171;50.936;6.764;2022-07-06T11:43:45;0.60;;;0.60;;
14181;SDS011;7171;50.936;6.764;2022-07-06T11:46:24;1.15;;;1.00;;
14181;SDS011;7171;50.936;6.764;2022-07-06T11:48:53;1.17;;;0.80;;
14181;SDS011;7171;50.936;6.764;2022-07-06T11:51:21;0.98;;;0.80;;
14181;SDS011;7171;50.936;6.764;2022-07-06T11:53:49;0.70;;;0.70;;
14181;SDS011;7171;50.936;6.764;2022-07-06T11:56:17;1.42;;;0.98;;
14181;SDS011;7171;50.936;6.764;2022-07-06T11:58:46;0.70;;;0.70;;
14181;SDS011;7171;50.936;6.764;2022-07-06T12:01:16;0.95;;;0.85;;
14181;SDS011;7171;50.936;6.764;2022-07-06T12:03:44;1.30;;;0.90;;
14181;SDS011;7171;50.936;6.764;2022-07-06T12:06:16;1.88;;;0.57;;
14181;SDS011;7171;50.936;6.764;2022-07-06T12:08:45;0.70;;;0.70;;
14181;SDS011;7171;50.936;6.764;2022-07-06T12:11:16;0.60;;;0.60;;
14181;SDS011;7171;50.936;6.764;2022-07-06T12:13:47;0.80;;;0.80;;
14181;SDS011;7171;50.936;6.764;2022-07-06T12:16:15;1.10;;;1.00;;
14181;SDS011;7171;50.936;6.764;2022-07-06T12:18:42;0.80;;;0.80;;
14181;SDS011;7171;50.936;6.764;2022-07-06T12:21:12;1.25;;;0.80;;
14181;SDS011;7171;50.936;6.764;2022-07-06T12:23:42;0.63;;;0.63;;
14181;SDS011;7171;50.936;6.764;2022-07-06T12:26:10;1.30;;;0.90;;
14181;SDS011;7171;50.936;6.764;2022-07-06T12:28:37;0.90;;;0.68;;
14181;SDS011;7171;50.936;6.764;2022-07-06T12:31:05;0.80;;;0.80;;
14181;SDS011;7171;50.936;6.764;2022-07-06T12:33:32;0.80;;;0.80;;
14181;SDS011;7171;50.936;6.764;2022-07-06T12:36:10;1.30;;;0.85;;
14181;SDS011;7171;50.936;6.764;2022-07-06T12:38:43;0.70;;;0.70;;
14181;SDS011;7171;50.936;6.764;2022-07-06T12:41:24;0.60;;;0.60;;
14181;SDS011;7171;50.936;6.764;2022-07-06T12:43:59;1.00;;;0.73;;
14181;SDS011;7171;50.936;6.764;2022-07-06T12:46:27;0.40;;;0.40;;
14181;SDS011;7171;50.936;6.764;2022-07-06T12:48:56;1.80;;;0.77;;
14181;SDS011;7171;50.936;6.764;2022-07-06T12:51:24;0.50;;;0.50;;
14181;SDS011;7171;50.936;6.764;2022-07-06T12:53:51;0.98;;;0.55;;
14181;SDS011;7171;50.936;6.764;2022-07-06T12:56:18;0.70;;;0.60;;
14181;SDS011;7171;50.936;6.764;2022-07-06T12:58:58;0.60;;;0.60;;
14181;SDS011;7171;50.936;6.764;2022-07-06T13:01:26;0.70;;;0.70;;
14181;SDS011;7171;50.936;6.764;2022-07-06T13:03:54;0.63;;;0.63;;
14181;SDS011;7171;50.936;6.764;2022-07-06T13:06:30;1.65;;;1.00;;
14181;SDS011;7171;50.936;6.764;2022-07-06T13:08:58;0.70;;;0.70;;
14181;SDS011;7171;50.936;6.764;2022-07-06T13:11:25;0.50;;;0.50;;
14181;SDS011;7171;50.936;6.764;2022-07-06T13:13:52;0.52;;;0.52;;
14181;SDS011;7171;50.936;6.764;2022-07-06T13:16:19;0.60;;;0.60;;
14181;SDS011;7171;50.936;6.764;2022-07-06T13:18:47;0.95;;;0.68;;
14181;SDS011;7171;50.936;6.764;2022-07-06T13:21:14;0.70;;;0.70;;
14181;SDS011;7171;50.936;6.764;2022-07-06T13:23:42;0.77;;;0.77;;
14181;SDS011;7171;50.936;6.764;2022-07-06T13:26:09;0.60;;;0.60;;
14181;SDS011;7171;50.936;6.764;2022-07-06T13:28:36;0.50;;;0.50;;
14181;SDS011;7171;50.936;6.764;2022-07-06T13:31:02;0.68;;;0.60;;
14181;SDS011;7171;50.936;6.764;2022-07-06T13:33:29;0.82;;;0.52;;
14181;SDS011;7171;50.936;6.764;2022-07-06T13:35:56;0.52;;;0.52;;
14181;SDS011;7171;50.936;6.764;2022-07-06T13:38:23;0.50;;;0.50;;
14181;SDS011;7171;50.936;6.764;2022-07-06T13:40:51;0.60;;;0.60;;
14181;SDS011;7171;50.936;6.764;2022-07-06T13:43:18;0.50;;;0.50;;
14181;SDS011;7171;50.936;6.764;2022-07-06T13:45:45;0.70;;;0.70;;
14181;SDS011;7171;50.936;6.764;2022-07-06T13:48:12;0.60;;;0.60;;
14181;SDS011;7171;50.936;6.764;2022-07-06T13:50:39;0.55;;;0.55;;
14181;SDS011;7171;50.936;6.764;2022-07-06T13:53:06;1.85;;;1.00;;
14181;SDS011;7171;50.936;6.764;2022-07-06T13:55:33;0.95;;;0.80;;
14181;SDS011;7171;50.936;6.764;2022-07-06T13:58:02;0.68;;;0.68;;
14181;SDS011;7171;50.936;6.764;2022-07-06T14:00:29;2.03;;;0.70;;
14181;SDS011;7171;50.936;6.764;2022-07-06T14:02:55;0.80;;;0.70;;
14181;SDS011;7171;50.936;6.764;2022-07-06T14:05:22;0.57;;;0.55;;
14181;SDS011;7171;50.936;6.764;2022-07-06T14:07:49;2.10;;;0.85;;
14181;SDS011;7171;50.936;6.764;2022-07-06T14:10:16;0.60;;;0.60;;
14181;SDS011;7171;50.936;6.764;2022-07-06T14:12:42;0.65;;;0.65;;
14181;SDS011;7171;50.936;6.764;2022-07-06T14:15:11;0.70;;;0.70;;
14181;SDS011;7171;50.936;6.764;2022-07-06T14:17:37;0.95;;;0.80;;
14181;SDS011;7171;50.936;6.764;2022-07-06T14:20:05;2.88;;;0.85;;
14181;SDS011;7171;50.936;6.764;2022-07-06T14:22:32;0.75;;;0.68;;
14181;SDS011;7171;50.936;6.764;2022-07-06T14:24:59;0.80;;;0.80;;
14181;SDS011;7171;50.936;6.764;2022-07-06T14:27:26;1.15;;;0.70;;
14181;SDS011;7171;50.936;6.764;2022-07-06T14:29:52;0.57;;;0.57;;
14181;SDS011;7171;50.936;6.764;2022-07-06T14:32:21;0.77;;;0.77;;
14181;SDS011;7171;50.936;6.764;2022-07-06T14:34:47;1.15;;;0.95;;
14181;SDS011;7171;50.936;6.764;2022-07-06T14:37:14;0.63;;;0.63;;
14181;SDS011;7171;50.936;6.764;2022-07-06T14:39:41;1.40;;;0.65;;
14181;SDS011;7171;50.936;6.764;2022-07-06T14:42:11;0.98;;;0.88;;
14181;SDS011;7171;50.936;6.764;2022-07-06T14:44:38;0.75;;;0.75;;
14181;SDS011;7171;50.936;6.764;2022-07-06T14:47:05;0.82;;;0.82;;
14181;SDS011;7171;50.936;6.764;2022-07-06T14:49:33;0.70;;;0.70;;
14181;SDS011;7171;50.936;6.764;2022-07-06T14:52:00;0.63;;;0.63;;
14181;SDS011;7171;50.936;6.764;2022-07-06T14:54:27;0.60;;;0.60;;
14181;SDS011;7171;50.936;6.764;2022-07-06T14:56:53;0.60;;;0.60;;
14181;SDS011;7171;50.936;6.764;2022-07-06T14:59:20;0.50;;;0.50;;
14181;SDS011;7171;50.936;6.764;2022-07-06T15:01:47;0.70;;;0.70;;
14181;SDS011;7171;50.936;6.764;2022-07-06T15:04:14;0.80;;;0.80;;
14181;SDS011;7171;50.936;6.764;2022-07-06T15:06:42;0.93;;;0.70;;
14181;SDS011;7171;50.936;6.764;2022-07-06T15:09:09;0.70;;;0.45;;
14181;SDS011;7171;50.936;6.764;2022-07-06T15:11:35;1.10;;;0.80;;
14181;SDS011;7171;50.936;6.764;2022-07-06T15:14:02;0.80;;;0.80;;